Time;durP1;ratioP1;P1;durP2;ratioP2;P2;SDS_P1;SDS_P2;PMS_P1;PMS_P2;Temp;Humidity;BMP_temperature;BMP_pressure;BME280_temperature;BME280_humidity;BME280_pressure;Samples;Min_cycle;Max_cycle;Signal;HPM_P1;HPM_P2
2024/01/27 00:03:57;;;;;;;40.20;18.57;;;;;;;;;;4376883;32;389605;-76
2024/01/27 00:06:23;;;;;;;37.20;18.17;;;;;;;;;;4394257;32;317626;-77
2024/01/27 00:08:54;;;;;;;21.23;9.70;;;;;;;;;;4395847;32;317708;-76
2024/01/27 00:11:24;;;;;;;21.40;11.57;;;;;;;;;;4383541;32;316713;-76
2024/01/27 00:13:53;;;;;;;23.47;11.47;;;;;;;;;;4400540;32;316864;-76
2024/01/27 00:16:23;;;;;;;25.00;11.43;;;;;;;;;;4399168;32;322392;-76
2024/01/27 00:18:53;;;;;;;28.23;11.63;;;;;;;;;;4410418;32;318139;-76
2024/01/27 00:21:23;;;;;;;24.53;12.50;;;;;;;;;;4399396;32;317648;-76
2024/01/27 00:24:03;;;;;;;20.93;10.27;;;;;;;;;;4396705;32;317849;-76
2024/01/27 00:26:31;;;;;;;22.27;10.57;;;;;;;;;;4393091;32;317708;-76
2024/01/27 00:28:57;;;;;;;28.77;11.63;;;;;;;;;;4408952;32;318135;-76
2024/01/27 00:31:24;;;;;;;24.90;11.10;;;;;;;;;;4384553;32;357120;-76
2024/01/27 00:33:51;;;;;;;22.67;12.03;;;;;;;;;;4356715;32;317501;-76
2024/01/27 00:36:18;;;;;;;30.13;15.20;;;;;;;;;;4351777;32;318503;-77
2024/01/27 00:38:46;;;;;;;47.07;25.07;;;;;;;;;;4359203;32;318227;-77
2024/01/27 00:41:18;;;;;;;68.07;30.63;;;;;;;;;;4353851;32;318218;-76
2024/01/27 00:43:47;;;;;;;66.53;32.37;;;;;;;;;;4328944;32;417207;-76
2024/01/27 00:46:17;;;;;;;70.83;33.93;;;;;;;;;;4335638;32;317580;-76
2024/01/27 00:48:45;;;;;;;68.13;34.03;;;;;;;;;;4349834;32;416644;-76
2024/01/27 00:51:12;;;;;;;60.03;31.33;;;;;;;;;;4358066;32;318130;-76
2024/01/27 00:53:39;;;;;;;64.10;32.73;;;;;;;;;;4330848;32;318388;-76
2024/01/27 00:56:07;;;;;;;63.53;32.53;;;;;;;;;;4351928;32;318330;-76
2024/01/27 00:58:37;;;;;;;72.27;36.13;;;;;;;;;;4337414;32;318284;-76
2024/01/27 01:01:04;;;;;;;64.03;31.93;;;;;;;;;;4369260;32;318536;-76
2024/01/27 01:03:30;;;;;;;71.60;32.33;;;;;;;;;;4386363;32;318063;-77
2024/01/27 01:06:01;;;;;;;57.87;31.17;;;;;;;;;;4406840;32;342564;-77
2024/01/27 01:08:30;;;;;;;72.43;33.93;;;;;;;;;;4389636;32;318788;-76
2024/01/27 01:10:59;;;;;;;65.13;32.10;;;;;;;;;;4392793;32;317974;-77
2024/01/27 01:13:37;;;;;;;61.33;28.27;;;;;;;;;;4382031;32;317825;-77
2024/01/27 01:16:07;;;;;;;50.77;25.23;;;;;;;;;;4409676;32;317756;-77
2024/01/27 01:18:37;;;;;;;63.73;28.93;;;;;;;;;;4385200;32;317573;-77
2024/01/27 01:21:04;;;;;;;74.30;33.87;;;;;;;;;;4409013;32;317713;-77
2024/01/27 01:23:31;;;;;;;66.53;32.33;;;;;;;;;;4393416;32;316238;-76
2024/01/27 01:26:00;;;;;;;79.83;38.07;;;;;;;;;;4402380;32;317856;-76
2024/01/27 01:28:28;;;;;;;70.90;34.47;;;;;;;;;;4399409;32;318135;-77
2024/01/27 01:30:56;;;;;;;64.17;32.07;;;;;;;;;;4408076;32;317405;-77
2024/01/27 01:33:26;;;;;;;62.53;30.87;;;;;;;;;;4396455;32;318102;-76
2024/01/27 01:35:53;;;;;;;65.30;30.57;;;;;;;;;;4398804;32;335834;-77
2024/01/27 01:38:20;;;;;;;72.47;31.60;;;;;;;;;;4383491;32;318303;-77
2024/01/27 01:40:47;;;;;;;67.97;31.17;;;;;;;;;;4392685;32;318305;-77
2024/01/27 01:43:15;;;;;;;74.17;35.97;;;;;;;;;;4402167;32;317672;-76
2024/01/27 01:45:44;;;;;;;72.77;34.30;;;;;;;;;;4374472;32;419046;-77
2024/01/27 01:48:11;;;;;;;68.67;31.80;;;;;;;;;;4403734;32;318459;-77
2024/01/27 01:50:41;;;;;;;73.60;34.93;;;;;;;;;;4398733;32;318225;-77
2024/01/27 01:53:12;;;;;;;63.37;28.67;;;;;;;;;;4409538;32;317773;-77
2024/01/27 01:55:42;;;;;;;78.73;38.33;;;;;;;;;;4379775;32;317752;-77
2024/01/27 01:58:19;;;;;;;81.20;35.50;;;;;;;;;;4400865;32;316285;-77
2024/01/27 02:00:48;;;;;;;62.00;29.63;;;;;;;;;;4391705;32;417902;-77
2024/01/27 02:03:14;;;;;;;70.47;31.60;;;;;;;;;;4394491;32;349395;-76
2024/01/27 02:05:45;;;;;;;63.00;31.37;;;;;;;;;;4387832;32;417901;-76
2024/01/27 02:08:12;;;;;;;55.87;32.17;;;;;;;;;;4392235;32;318501;-78
2024/01/27 02:10:40;;;;;;;64.17;32.63;;;;;;;;;;4354085;32;317993;-76
2024/01/27 02:13:21;;;;;;;71.07;35.33;;;;;;;;;;4360219;32;344529;-77
2024/01/27 02:15:50;;;;;;;69.90;31.60;;;;;;;;;;4335818;32;418899;-77
2024/01/27 02:18:18;;;;;;;60.50;29.63;;;;;;;;;;4338255;32;366154;-76
2024/01/27 02:20:47;;;;;;;64.57;31.60;;;;;;;;;;4358892;32;343591;-76
2024/01/27 02:23:15;;;;;;;68.00;33.20;;;;;;;;;;4360163;32;318140;-76
2024/01/27 02:25:50;;;;;;;57.10;32.07;;;;;;;;;;4342927;32;419102;-76
2024/01/27 02:28:16;;;;;;;61.77;31.57;;;;;;;;;;4336554;32;401193;-76
2024/01/27 02:30:43;;;;;;;70.27;34.53;;;;;;;;;;4354855;32;317358;-76
2024/01/27 02:33:10;;;;;;;62.40;30.80;;;;;;;;;;4359545;32;317497;-76
2024/01/27 02:35:37;;;;;;;61.73;30.87;;;;;;;;;;4389856;32;317791;-76
2024/01/27 02:38:05;;;;;;;59.50;30.37;;;;;;;;;;4404586;32;317619;-77
2024/01/27 02:40:31;;;;;;;71.77;32.53;;;;;;;;;;4395936;32;335479;-76
2024/01/27 02:42:59;;;;;;;65.80;32.93;;;;;;;;;;4396318;32;316337;-76
2024/01/27 02:45:26;;;;;;;63.07;33.50;;;;;;;;;;4391459;32;318017;-76
2024/01/27 02:47:54;;;;;;;73.17;35.23;;;;;;;;;;4397692;32;317355;-76
2024/01/27 02:50:21;;;;;;;65.00;31.23;;;;;;;;;;4382705;32;316676;-76
2024/01/27 02:52:49;;;;;;;68.20;34.07;;;;;;;;;;4393142;32;317675;-76
2024/01/27 02:55:16;;;;;;;70.47;35.30;;;;;;;;;;4387406;32;317984;-77
2024/01/27 02:57:45;;;;;;;88.50;48.30;;;;;;;;;;4377926;32;316556;-76
2024/01/27 03:00:14;;;;;;;92.60;50.80;;;;;;;;;;4393205;32;317405;-75
2024/01/27 03:02:41;;;;;;;99.27;50.77;;;;;;;;;;4392729;32;418926;-76
2024/01/27 03:05:08;;;;;;;97.60;50.63;;;;;;;;;;4398047;32;316663;-76
2024/01/27 03:07:36;;;;;;;98.63;49.03;;;;;;;;;;4388172;32;318236;-76
2024/01/27 03:10:04;;;;;;;87.50;44.43;;;;;;;;;;4408092;32;317438;-76
2024/01/27 03:12:36;;;;;;;89.80;44.27;;;;;;;;;;4396563;32;316664;-76
2024/01/27 03:15:02;;;;;;;91.23;43.00;;;;;;;;;;4391180;32;319868;-76
2024/01/27 03:17:31;;;;;;;82.30;40.70;;;;;;;;;;4373382;32;317722;-76
2024/01/27 03:19:57;;;;;;;76.97;37.13;;;;;;;;;;4399296;32;318362;-76
2024/01/27 03:22:24;;;;;;;72.80;35.63;;;;;;;;;;4396318;32;317334;-76
2024/01/27 03:24:51;;;;;;;53.03;28.80;;;;;;;;;;4407659;32;318161;-76
2024/01/27 03:27:18;;;;;;;54.50;28.67;;;;;;;;;;4395039;32;318038;-76
2024/01/27 03:29:45;;;;;;;40.63;22.53;;;;;;;;;;4399307;32;318481;-76
2024/01/27 03:32:11;;;;;;;43.97;24.57;;;;;;;;;;4402923;32;318217;-76
2024/01/27 03:34:44;;;;;;;48.70;26.47;;;;;;;;;;4398614;32;318231;-76
2024/01/27 03:37:11;;;;;;;54.10;25.53;;;;;;;;;;4408871;32;318187;-76
2024/01/27 03:39:41;;;;;;;48.80;25.23;;;;;;;;;;4394262;32;318710;-77
2024/01/27 03:42:09;;;;;;;56.83;26.37;;;;;;;;;;4379656;32;317515;-77
2024/01/27 03:44:39;;;;;;;54.77;26.77;;;;;;;;;;4383235;32;317814;-77
2024/01/27 03:47:10;;;;;;;48.50;24.73;;;;;;;;;;4400616;32;318276;-77
2024/01/27 03:49:48;;;;;;;53.83;25.70;;;;;;;;;;4391853;32;317641;-77
2024/01/27 03:52:19;;;;;;;44.10;25.13;;;;;;;;;;4399121;32;317656;-76
2024/01/27 03:54:48;;;;;;;52.27;25.43;;;;;;;;;;4365363;32;417605;-76
2024/01/27 04:00:07;;;;;;;43.17;20.93;;;;;;;;;;4389988;32;390116;-77
2024/01/27 04:02:47;;;;;;;56.83;24.93;;;;;;;;;;4380149;32;317613;-78
2024/01/27 04:05:14;;;;;;;53.63;25.70;;;;;;;;;;4397439;32;317737;-77
2024/01/27 04:07:45;;;;;;;49.40;26.60;;;;;;;;;;4379533;32;419096;-77
2024/01/27 04:10:11;;;;;;;50.70;26.60;;;;;;;;;;4402739;32;332256;-77
2024/01/27 04:12:41;;;;;;;50.30;27.40;;;;;;;;;;4400954;32;317980;-77
2024/01/27 04:15:08;;;;;;;61.10;28.70;;;;;;;;;;4409487;32;317629;-77
2024/01/27 04:17:35;;;;;;;51.20;25.63;;;;;;;;;;4354823;32;318396;-77
2024/01/27 04:20:05;;;;;;;51.00;26.17;;;;;;;;;;4354280;32;355058;-77
2024/01/27 04:22:32;;;;;;;48.27;26.87;;;;;;;;;;4351052;32;334561;-77
2024/01/27 04:25:00;;;;;;;52.07;28.20;;;;;;;;;;4362103;32;316509;-77
2024/01/27 04:27:28;;;;;;;55.90;30.03;;;;;;;;;;4346474;32;317834;-77
2024/01/27 04:29:55;;;;;;;53.93;28.53;;;;;;;;;;4361203;32;317759;-77
2024/01/27 04:32:22;;;;;;;63.23;28.43;;;;;;;;;;4336907;32;318195;-77
2024/01/27 04:34:49;;;;;;;60.20;31.70;;;;;;;;;;4363826;32;317390;-77
2024/01/27 04:37:16;;;;;;;41.03;24.57;;;;;;;;;;4392918;32;318150;-77
2024/01/27 04:39:45;;;;;;;47.97;25.80;;;;;;;;;;4387388;32;317627;-75
2024/01/27 04:42:16;;;;;;;46.80;26.13;;;;;;;;;;4405408;32;317480;-76
2024/01/27 04:44:44;;;;;;;49.10;25.50;;;;;;;;;;4390181;32;417277;-77
2024/01/27 04:47:11;;;;;;;50.80;22.57;;;;;;;;;;4404877;32;317858;-76
2024/01/27 04:49:38;;;;;;;43.70;23.50;;;;;;;;;;4387417;32;317730;-76
2024/01/27 04:52:05;;;;;;;48.70;23.07;;;;;;;;;;4406684;32;317645;-76
2024/01/27 04:54:34;;;;;;;39.40;20.23;;;;;;;;;;4393160;32;318056;-76
2024/01/27 04:57:01;;;;;;;43.83;20.07;;;;;;;;;;4393883;32;317768;-76
2024/01/27 04:59:30;;;;;;;28.43;17.60;;;;;;;;;;4391914;32;318078;-76
2024/01/27 05:01:56;;;;;;;40.90;19.67;;;;;;;;;;4401844;32;316354;-76
2024/01/27 05:04:26;;;;;;;48.30;22.07;;;;;;;;;;4398431;32;318385;-76
2024/01/27 05:06:55;;;;;;;43.63;20.93;;;;;;;;;;4393011;32;317733;-76
2024/01/27 05:09:25;;;;;;;42.47;19.87;;;;;;;;;;4386535;32;317685;-76
2024/01/27 05:11:54;;;;;;;41.83;19.37;;;;;;;;;;4405834;32;317499;-76
2024/01/27 05:14:26;;;;;;;39.40;20.33;;;;;;;;;;4390951;32;317394;-76
2024/01/27 05:16:57;;;;;;;53.37;25.20;;;;;;;;;;4385760;32;318380;-76
2024/01/27 05:19:25;;;;;;;52.87;24.93;;;;;;;;;;4349509;32;318564;-76
2024/01/27 05:21:52;;;;;;;60.20;26.83;;;;;;;;;;4348299;32;318731;-77
2024/01/27 05:24:18;;;;;;;53.47;26.87;;;;;;;;;;4344158;32;318019;-77
2024/01/27 05:26:46;;;;;;;54.40;28.53;;;;;;;;;;4355971;32;318238;-77
2024/01/27 05:29:17;;;;;;;66.03;30.77;;;;;;;;;;4345713;32;318014;-77
2024/01/27 05:31:44;;;;;;;55.67;31.77;;;;;;;;;;4366705;32;418927;-76
2024/01/27 05:34:12;;;;;;;52.43;28.37;;;;;;;;;;4409497;32;318400;-76
2024/01/27 05:36:39;;;;;;;54.73;27.93;;;;;;;;;;4361331;32;317620;-76
2024/01/27 05:39:07;;;;;;;42.10;24.17;;;;;;;;;;4407326;32;343947;-76
2024/01/27 05:41:35;;;;;;;50.40;27.30;;;;;;;;;;4390872;32;318162;-76
2024/01/27 05:44:04;;;;;;;52.77;28.47;;;;;;;;;;4400580;32;316404;-76
2024/01/27 05:46:34;;;;;;;45.90;24.73;;;;;;;;;;4389171;32;340598;-77
2024/01/27 05:49:03;;;;;;;40.80;25.00;;;;;;;;;;4393316;32;318281;-77
2024/01/27 05:51:34;;;;;;;48.20;23.93;;;;;;;;;;4379742;32;318157;-77
2024/01/27 05:54:02;;;;;;;43.17;22.57;;;;;;;;;;4396997;32;318154;-77
2024/01/27 05:56:30;;;;;;;47.87;25.87;;;;;;;;;;4397840;32;317785;-77
2024/01/27 06:01:40;;;;;;;47.30;26.13;;;;;;;;;;4375312;32;329236;-75
2024/01/27 06:04:07;;;;;;;46.73;25.70;;;;;;;;;;4398033;32;318123;-76
2024/01/27 06:06:39;;;;;;;45.93;25.40;;;;;;;;;;4394049;32;318133;-76
2024/01/27 06:09:10;;;;;;;50.07;29.57;;;;;;;;;;4400600;32;318358;-77
2024/01/27 06:11:38;;;;;;;59.87;32.10;;;;;;;;;;4359495;32;317723;-77
2024/01/27 06:14:06;;;;;;;65.30;35.83;;;;;;;;;;4380740;32;318358;-76
2024/01/27 06:16:42;;;;;;;91.03;45.37;;;;;;;;;;4384071;32;317666;-76
2024/01/27 06:19:11;;;;;;;85.60;42.13;;;;;;;;;;4384858;32;317926;-76
2024/01/27 06:21:43;;;;;;;98.93;50.27;;;;;;;;;;4371446;32;317931;-77
2024/01/27 06:24:11;;;;;;;99.57;53.80;;;;;;;;;;4398804;32;317861;-77
2024/01/27 06:26:38;;;;;;;83.23;45.80;;;;;;;;;;4397903;32;317523;-76
2024/01/27 06:29:06;;;;;;;82.77;42.13;;;;;;;;;;4407496;32;318168;-76
2024/01/27 06:31:33;;;;;;;59.83;36.87;;;;;;;;;;4384216;32;353751;-76
2024/01/27 06:34:00;;;;;;;59.67;33.20;;;;;;;;;;4398620;32;318391;-77
2024/01/27 06:36:27;;;;;;;74.50;37.33;;;;;;;;;;4373220;32;317656;-77
2024/01/27 06:38:59;;;;;;;60.87;36.27;;;;;;;;;;4391862;32;318388;-77
2024/01/27 06:41:28;;;;;;;57.17;33.27;;;;;;;;;;4373970;32;318478;-77
2024/01/27 06:43:56;;;;;;;60.63;32.77;;;;;;;;;;4345355;32;317693;-77
2024/01/27 06:46:27;;;;;;;75.80;37.53;;;;;;;;;;4327983;32;317846;-78
2024/01/27 06:49:05;;;;;;;54.60;33.87;;;;;;;;;;4350021;32;317698;-78
2024/01/27 06:51:37;;;;;;;64.33;35.47;;;;;;;;;;4318383;32;317685;-77
2024/01/27 06:54:10;;;;;;;64.20;34.90;;;;;;;;;;4337885;32;316611;-76
2024/01/27 06:56:40;;;;;;;66.10;35.57;;;;;;;;;;4327051;32;316818;-77
2024/01/27 06:59:08;;;;;;;67.10;38.57;;;;;;;;;;4343755;32;318039;-78
2024/01/27 07:01:37;;;;;;;64.90;38.67;;;;;;;;;;4320960;32;317898;-79
2024/01/27 07:04:09;;;;;;;79.63;40.60;;;;;;;;;;4342627;32;317868;-77
2024/01/27 07:06:42;;;;;;;104.33;58.07;;;;;;;;;;4327084;32;318042;-77
2024/01/27 07:09:38;;;;;;;85.93;46.23;;;;;;;;;;4323812;32;317757;-76
2024/01/27 07:12:12;;;;;;;73.50;40.93;;;;;;;;;;4323826;32;420156;-76
2024/01/27 07:14:41;;;;;;;76.53;41.23;;;;;;;;;;4350063;32;317824;-76
2024/01/27 07:17:09;;;;;;;76.77;38.57;;;;;;;;;;4359858;32;335497;-76
2024/01/27 07:19:36;;;;;;;74.57;41.07;;;;;;;;;;4326654;32;317617;-77
2024/01/27 07:22:07;;;;;;;78.77;42.90;;;;;;;;;;4361778;32;318102;-77
2024/01/27 07:24:35;;;;;;;69.17;39.33;;;;;;;;;;4349840;32;318327;-77
2024/01/27 07:27:03;;;;;;;78.27;46.07;;;;;;;;;;4358212;32;317570;-77
2024/01/27 07:29:31;;;;;;;84.80;46.30;;;;;;;;;;4336954;32;317478;-77
2024/01/27 07:31:58;;;;;;;101.67;48.97;;;;;;;;;;4361987;32;318467;-78
2024/01/27 07:34:25;;;;;;;106.30;51.93;;;;;;;;;;4352256;32;319219;-78
2024/01/27 07:36:53;;;;;;;89.87;52.07;;;;;;;;;;4348146;32;319347;-77
2024/01/27 07:39:21;;;;;;;84.03;46.33;;;;;;;;;;4340601;32;318320;-77
2024/01/27 07:41:50;;;;;;;73.63;44.67;;;;;;;;;;4347511;32;318629;-77
2024/01/27 07:44:19;;;;;;;86.37;42.57;;;;;;;;;;4344367;32;318386;-77
2024/01/27 07:46:47;;;;;;;67.00;38.13;;;;;;;;;;4347365;32;318261;-77
2024/01/27 07:49:15;;;;;;;85.53;48.90;;;;;;;;;;4349588;32;341235;-76
2024/01/27 07:51:41;;;;;;;78.17;43.50;;;;;;;;;;4344520;32;417542;-76
2024/01/27 07:54:12;;;;;;;72.70;40.20;;;;;;;;;;4361845;32;317664;-77
2024/01/27 07:56:39;;;;;;;106.63;54.70;;;;;;;;;;4347384;32;322021;-77
2024/01/27 07:59:13;;;;;;;73.30;39.63;;;;;;;;;;4353201;32;319411;-77
2024/01/27 08:01:40;;;;;;;70.27;35.07;;;;;;;;;;4341239;32;419140;-78
2024/01/27 08:04:11;;;;;;;62.57;33.73;;;;;;;;;;4342541;32;317912;-78
2024/01/27 08:06:47;;;;;;;68.40;38.57;;;;;;;;;;4332629;32;317628;-77
2024/01/27 08:09:16;;;;;;;77.30;40.80;;;;;;;;;;4362130;32;316700;-77
2024/01/27 08:11:43;;;;;;;80.83;43.37;;;;;;;;;;4348789;32;417529;-78
2024/01/27 08:14:13;;;;;;;78.43;41.07;;;;;;;;;;4374062;32;317931;-77
2024/01/27 08:16:40;;;;;;;68.67;39.57;;;;;;;;;;4364996;32;318262;-77
2024/01/27 08:19:08;;;;;;;130.83;59.70;;;;;;;;;;4373068;32;318285;-77
2024/01/27 08:21:34;;;;;;;63.43;31.67;;;;;;;;;;4345255;32;319192;-77
2024/01/27 08:24:02;;;;;;;104.23;47.50;;;;;;;;;;4352681;32;318042;-77
2024/01/27 08:26:29;;;;;;;61.83;30.33;;;;;;;;;;4347225;32;319284;-77
2024/01/27 08:28:58;;;;;;;174.83;69.23;;;;;;;;;;4353821;32;337886;-78
2024/01/27 08:31:26;;;;;;;80.63;33.30;;;;;;;;;;4346819;32;323661;-77
2024/01/27 08:33:53;;;;;;;78.70;36.57;;;;;;;;;;4360020;32;318319;-77
2024/01/27 08:36:21;;;;;;;50.00;26.73;;;;;;;;;;4337878;32;357595;-77
2024/01/27 08:38:48;;;;;;;54.37;26.17;;;;;;;;;;4360489;32;318391;-77
2024/01/27 08:41:15;;;;;;;61.60;36.77;;;;;;;;;;4358638;32;345776;-77
2024/01/27 08:43:43;;;;;;;64.57;40.43;;;;;;;;;;4314059;32;418058;-77
2024/01/27 08:46:13;;;;;;;48.93;25.53;;;;;;;;;;4350689;32;317729;-77
2024/01/27 08:48:41;;;;;;;42.63;22.63;;;;;;;;;;4338115;32;419141;-77
2024/01/27 08:51:09;;;;;;;58.80;29.27;;;;;;;;;;4345750;32;318472;-77
2024/01/27 08:53:37;;;;;;;51.43;29.43;;;;;;;;;;4328919;32;318543;-77
2024/01/27 08:56:04;;;;;;;46.43;26.13;;;;;;;;;;4340471;32;318263;-78
2024/01/27 08:58:33;;;;;;;50.00;26.63;;;;;;;;;;4346795;32;357532;-78
2024/01/27 09:01:05;;;;;;;53.03;28.03;;;;;;;;;;4343355;32;318023;-76
2024/01/27 09:03:33;;;;;;;67.97;37.40;;;;;;;;;;4359747;32;317429;-77
2024/01/27 09:06:01;;;;;;;58.83;32.30;;;;;;;;;;4343130;32;318419;-76
2024/01/27 09:08:32;;;;;;;62.50;31.70;;;;;;;;;;4360330;32;318361;-76
2024/01/27 09:10:59;;;;;;;64.90;36.47;;;;;;;;;;4351519;32;318196;-76
2024/01/27 09:13:27;;;;;;;65.30;36.50;;;;;;;;;;4360681;32;318266;-77
2024/01/27 09:15:54;;;;;;;64.33;37.50;;;;;;;;;;4344551;32;318117;-77
2024/01/27 09:18:22;;;;;;;71.13;37.13;;;;;;;;;;4359298;32;318092;-77
2024/01/27 09:20:52;;;;;;;82.20;44.63;;;;;;;;;;4346562;32;318332;-78
2024/01/27 09:23:22;;;;;;;91.00;52.97;;;;;;;;;;4359229;32;318272;-78
2024/01/27 09:25:52;;;;;;;67.83;33.50;;;;;;;;;;4345893;32;317389;-77
2024/01/27 09:28:21;;;;;;;49.93;29.47;;;;;;;;;;4348952;32;318121;-78
2024/01/27 09:30:48;;;;;;;25.97;16.30;;;;;;;;;;4336059;32;318266;-77
2024/01/27 09:33:17;;;;;;;10.83;6.27;;;;;;;;;;4347189;32;318045;-78
2024/01/27 09:35:44;;;;;;;6.07;3.20;;;;;;;;;;4348474;32;317215;-78
2024/01/27 09:38:14;;;;;;;9.80;4.50;;;;;;;;;;4353604;32;316263;-79
2024/01/27 09:40:43;;;;;;;34.33;17.67;;;;;;;;;;4350144;32;316134;-78
2024/01/27 09:43:14;;;;;;;53.50;26.67;;;;;;;;;;4359334;32;318289;-78
2024/01/27 09:45:42;;;;;;;29.97;14.10;;;;;;;;;;4350396;32;318272;-78
2024/01/27 09:48:11;;;;;;;5.03;3.87;;;;;;;;;;4354708;32;317697;-78
2024/01/27 09:50:40;;;;;;;59.70;25.70;;;;;;;;;;4341583;32;315705;-77
2024/01/27 09:53:09;;;;;;;86.80;32.70;;;;;;;;;;4344435;32;419172;-76
2024/01/27 09:58:26;;;;;;;14.80;7.63;;;;;;;;;;4345104;32;390446;-75
2024/01/27 10:00:57;;;;;;;7.20;3.60;;;;;;;;;;4336504;32;317113;-75
2024/01/27 10:03:24;;;;;;;5.53;2.97;;;;;;;;;;4352961;32;316396;-75
2024/01/27 10:05:54;;;;;;;26.43;10.83;;;;;;;;;;4309853;32;315645;-78
2024/01/27 10:08:23;;;;;;;44.00;17.27;;;;;;;;;;4334514;32;317377;-77
2024/01/27 10:10:55;;;;;;;29.90;11.53;;;;;;;;;;4336081;32;318411;-77
2024/01/27 10:13:29;;;;;;;34.87;16.73;;;;;;;;;;4343761;32;318356;-80
2024/01/27 10:16:04;;;;;;;14.87;9.53;;;;;;;;;;4301883;32;317247;-76
2024/01/27 10:18:32;;;;;;;23.43;12.83;;;;;;;;;;4332121;32;315340;-77
2024/01/27 10:21:01;;;;;;;7.13;4.00;;;;;;;;;;4316387;32;316689;-78
2024/01/27 10:23:30;;;;;;;10.83;4.53;;;;;;;;;;4351531;32;316093;-77
2024/01/27 10:25:58;;;;;;;9.07;3.57;;;;;;;;;;4326631;32;316971;-78
2024/01/27 10:28:26;;;;;;;4.07;2.50;;;;;;;;;;4341739;32;316515;-77
2024/01/27 10:30:52;;;;;;;3.67;2.17;;;;;;;;;;4331990;32;315309;-77
2024/01/27 10:33:20;;;;;;;5.30;2.77;;;;;;;;;;4394392;32;316143;-77
2024/01/27 10:35:48;;;;;;;6.23;2.70;;;;;;;;;;4329055;32;314835;-77
2024/01/27 10:38:14;;;;;;;5.97;2.03;;;;;;;;;;4390905;32;315889;-77
2024/01/27 10:40:41;;;;;;;10.63;7.03;;;;;;;;;;4326138;32;395227;-79
2024/01/27 10:43:11;;;;;;;6.87;4.53;;;;;;;;;;4343066;32;317123;-77
2024/01/27 10:45:41;;;;;;;10.87;5.43;;;;;;;;;;4336623;32;325059;-78
2024/01/27 10:48:10;;;;;;;2.50;2.10;;;;;;;;;;4324311;32;416606;-78
2024/01/27 10:50:42;;;;;;;4.10;2.83;;;;;;;;;;4362370;32;314449;-79
2024/01/27 10:53:16;;;;;;;5.30;3.77;;;;;;;;;;4334078;32;413514;-78
2024/01/27 10:56:03;;;;;;;7.33;4.27;;;;;;;;;;4352615;32;315851;-77
2024/01/27 10:58:35;;;;;;;18.13;9.37;;;;;;;;;;4347230;32;314268;-77
2024/01/27 11:01:13;;;;;;;9.67;4.90;;;;;;;;;;4354534;32;317321;-77
2024/01/27 11:03:44;;;;;;;8.10;4.47;;;;;;;;;;4344216;32;316652;-77
2024/01/27 11:06:13;;;;;;;7.80;4.63;;;;;;;;;;4319773;32;352725;-79
2024/01/27 11:08:41;;;;;;;14.90;8.83;;;;;;;;;;4335416;32;316589;-78
2024/01/27 11:11:10;;;;;;;17.87;9.30;;;;;;;;;;4352828;32;315421;-78
2024/01/27 11:13:40;;;;;;;12.00;6.30;;;;;;;;;;4346857;32;316212;-77
2024/01/27 11:16:17;;;;;;;25.17;9.13;;;;;;;;;;4346026;32;417875;-77
2024/01/27 11:18:47;;;;;;;18.10;9.77;;;;;;;;;;4320782;32;315630;-78
2024/01/27 11:21:16;;;;;;;11.03;5.83;;;;;;;;;;4355859;32;316974;-78
2024/01/27 11:23:44;;;;;;;17.47;10.83;;;;;;;;;;4340832;32;316463;-77
2024/01/27 11:26:20;;;;;;;7.20;4.07;;;;;;;;;;4342830;32;318397;-77
2024/01/27 11:28:47;;;;;;;8.27;5.93;;;;;;;;;;4329033;32;315418;-76
2024/01/27 11:31:20;;;;;;;28.10;12.20;;;;;;;;;;4347303;32;316374;-78
2024/01/27 11:33:54;;;;;;;15.20;8.00;;;;;;;;;;4336516;32;341799;-77
2024/01/27 11:36:30;;;;;;;10.77;7.20;;;;;;;;;;4338728;32;316428;-77
2024/01/27 11:38:58;;;;;;;12.97;6.93;;;;;;;;;;4317170;32;316961;-77
2024/01/27 11:41:28;;;;;;;10.67;6.33;;;;;;;;;;4319430;32;316930;-78
2024/01/27 11:43:57;;;;;;;8.00;5.30;;;;;;;;;;4334240;32;322635;-78
2024/01/27 11:46:26;;;;;;;9.23;6.13;;;;;;;;;;4350396;32;315459;-78
2024/01/27 11:48:54;;;;;;;12.33;6.10;;;;;;;;;;4346582;32;315609;-78
2024/01/27 11:51:23;;;;;;;7.90;4.83;;;;;;;;;;4356016;32;316248;-78
2024/01/27 11:53:49;;;;;;;4.37;3.30;;;;;;;;;;4333452;32;315328;-78
2024/01/27 11:56:18;;;;;;;4.37;3.17;;;;;;;;;;4342970;32;316148;-78
2024/01/27 11:58:52;;;;;;;13.03;4.83;;;;;;;;;;4325790;32;315962;-78
2024/01/27 12:01:20;;;;;;;5.23;4.07;;;;;;;;;;4334199;32;315426;-78
2024/01/27 12:03:52;;;;;;;13.67;6.63;;;;;;;;;;4320828;32;315931;-78
2024/01/27 12:06:22;;;;;;;16.13;8.37;;;;;;;;;;4344124;32;317343;-77
2024/01/27 12:08:49;;;;;;;18.90;10.80;;;;;;;;;;4328144;32;317127;-77
2024/01/27 12:11:17;;;;;;;21.07;11.70;;;;;;;;;;4346686;32;317760;-79
2024/01/27 12:13:45;;;;;;;48.53;23.97;;;;;;;;;;4336095;32;317376;-79
2024/01/27 12:16:14;;;;;;;26.90;14.03;;;;;;;;;;4334967;32;355834;-78
2024/01/27 12:18:41;;;;;;;26.90;14.20;;;;;;;;;;4339333;32;317721;-77
2024/01/27 12:21:10;;;;;;;12.60;6.50;;;;;;;;;;4346130;32;318192;-80
2024/01/27 12:23:52;;;;;;;11.43;5.93;;;;;;;;;;4345091;32;316773;-77
2024/01/27 12:26:23;;;;;;;66.40;12.67;;;;;;;;;;4330384;32;417806;-77
2024/01/27 12:28:51;;;;;;;8.03;4.70;;;;;;;;;;4335569;32;318598;-77
2024/01/27 12:31:18;;;;;;;26.10;10.40;;;;;;;;;;4343687;32;315414;-77
2024/01/27 12:33:52;;;;;;;13.40;5.43;;;;;;;;;;4332369;32;318357;-78
2024/01/27 12:36:21;;;;;;;8.00;4.20;;;;;;;;;;4344726;32;316659;-78
2024/01/27 12:38:52;;;;;;;6.80;4.43;;;;;;;;;;4327714;32;324099;-77
2024/01/27 12:41:19;;;;;;;11.27;6.57;;;;;;;;;;4342128;32;316365;-78
2024/01/27 12:43:49;;;;;;;11.30;5.20;;;;;;;;;;4335287;32;323012;-77
2024/01/27 12:46:18;;;;;;;5.20;3.73;;;;;;;;;;4345203;32;317034;-77
2024/01/27 12:48:45;;;;;;;7.67;5.27;;;;;;;;;;4336158;32;316397;-77
2024/01/27 12:51:13;;;;;;;5.03;3.17;;;;;;;;;;4345965;32;316818;-77
2024/01/27 12:53:43;;;;;;;8.13;4.87;;;;;;;;;;4335054;32;316793;-77
2024/01/27 12:56:11;;;;;;;5.60;3.77;;;;;;;;;;4338504;32;315469;-77
2024/01/27 12:58:37;;;;;;;6.07;3.67;;;;;;;;;;4345310;32;316029;-78
2024/01/27 13:01:07;;;;;;;5.53;3.20;;;;;;;;;;4335377;32;316348;-78
2024/01/27 13:03:37;;;;;;;4.57;2.83;;;;;;;;;;4328126;32;316192;-78
2024/01/27 13:06:04;;;;;;;5.30;2.97;;;;;;;;;;4314246;33;316235;-76
2024/01/27 13:08:31;;;;;;;3.17;2.33;;;;;;;;;;4325545;33;316258;-79
2024/01/27 13:10:59;;;;;;;7.13;3.60;;;;;;;;;;4319594;33;315481;-80
2024/01/27 13:13:27;;;;;;;2.90;2.13;;;;;;;;;;4334456;32;316508;-78
2024/01/27 13:15:57;;;;;;;3.07;1.90;;;;;;;;;;4321915;32;315921;-77
2024/01/27 13:18:26;;;;;;;7.80;3.77;;;;;;;;;;4346403;32;316205;-79
2024/01/27 13:20:53;;;;;;;7.60;3.57;;;;;;;;;;4337780;32;316132;-79
2024/01/27 13:23:20;;;;;;;5.97;3.10;;;;;;;;;;4347706;32;316005;-78
2024/01/27 13:25:47;;;;;;;9.30;4.43;;;;;;;;;;4338689;32;317849;-79
2024/01/27 13:28:17;;;;;;;14.77;6.70;;;;;;;;;;4343097;32;316251;-77
2024/01/27 13:30:44;;;;;;;3.30;2.50;;;;;;;;;;4337988;32;317209;-78
2024/01/27 13:33:11;;;;;;;3.70;2.67;;;;;;;;;;4345023;32;316119;-77
2024/01/27 13:35:42;;;;;;;3.73;2.70;;;;;;;;;;4344662;32;316147;-78
2024/01/27 13:38:09;;;;;;;3.73;2.13;;;;;;;;;;4321907;32;416924;-77
2024/01/27 13:40:37;;;;;;;8.77;2.97;;;;;;;;;;4334605;32;316185;-77
2024/01/27 13:43:06;;;;;;;3.10;2.47;;;;;;;;;;4333512;32;415677;-76
2024/01/27 13:45:34;;;;;;;6.97;3.50;;;;;;;;;;4345928;32;316271;-78
2024/01/27 13:48:02;;;;;;;7.27;3.10;;;;;;;;;;4330012;32;316506;-79
2024/01/27 13:50:30;;;;;;;17.13;5.80;;;;;;;;;;4346098;32;320843;-78
2024/01/27 13:52:58;;;;;;;11.27;3.67;;;;;;;;;;4336473;32;317226;-77
2024/01/27 13:55:27;;;;;;;5.67;3.40;;;;;;;;;;4346659;32;317480;-77
2024/01/27 13:57:54;;;;;;;6.77;3.23;;;;;;;;;;4328303;32;316334;-78
2024/01/27 14:00:21;;;;;;;8.87;4.20;;;;;;;;;;4345991;32;316078;-78
2024/01/27 14:02:49;;;;;;;3.43;2.00;;;;;;;;;;4335131;32;316416;-79
2024/01/27 14:05:17;;;;;;;10.27;3.20;;;;;;;;;;4345524;32;315621;-77
2024/01/27 14:07:47;;;;;;;3.13;2.00;;;;;;;;;;4334380;32;343770;-77
2024/01/27 14:10:14;;;;;;;1.80;1.60;;;;;;;;;;4341160;32;316147;-77
2024/01/27 14:12:40;;;;;;;3.27;1.80;;;;;;;;;;4336240;32;316028;-77
2024/01/27 14:15:10;;;;;;;7.40;2.47;;;;;;;;;;4344483;32;315562;-78
2024/01/27 14:17:38;;;;;;;2.57;1.70;;;;;;;;;;4345715;32;316517;-77
2024/01/27 14:20:09;;;;;;;14.43;6.27;;;;;;;;;;4326998;32;415841;-77
2024/01/27 14:22:36;;;;;;;6.27;3.07;;;;;;;;;;4345469;32;317174;-77
2024/01/27 14:25:03;;;;;;;4.13;2.20;;;;;;;;;;4337275;32;316337;-78
2024/01/27 14:27:29;;;;;;;6.63;2.37;;;;;;;;;;4346208;32;316257;-76
2024/01/27 14:29:57;;;;;;;3.73;2.37;;;;;;;;;;4328941;32;316246;-78
2024/01/27 14:32:24;;;;;;;4.77;3.10;;;;;;;;;;4346054;32;316272;-78